sensor_id;sensor_type;location;lat;lon;timestamp;temperature;humidity
15481;DHT22;7842;50.904;6.670;2023-04-03T00:01:24;4.50;99.90
15481;DHT22;7842;50.904;6.670;2023-04-03T00:03:50;4.70;99.90
15481;DHT22;7842;50.904;6.670;2023-04-03T00:06:17;4.40;99.90
15481;DHT22;7842;50.904;6.670;2023-04-03T00:08:42;4.40;99.90
15481;DHT22;7842;50.904;6.670;2023-04-03T00:11:12;4.40;99.90
15481;DHT22;7842;50.904;6.670;2023-04-03T00:13:38;4.40;99.90
15481;DHT22;7842;50.904;6.670;2023-04-03T00:16:04;4.30;99.90
15481;DHT22;7842;50.904;6.670;2023-04-03T00:18:30;4.40;99.90
15481;DHT22;7842;50.904;6.670;2023-04-03T00:20:56;4.30;99.90
15481;DHT22;7842;50.904;6.670;2023-04-03T00:23:22;4.30;99.90
15481;DHT22;7842;50.904;6.670;2023-04-03T00:25:49;4.30;99.90
15481;DHT22;7842;50.904;6.670;2023-04-03T00:28:15;4.40;99.90
15481;DHT22;7842;50.904;6.670;2023-04-03T00:30:40;4.40;99.90
15481;DHT22;7842;50.904;6.670;2023-04-03T00:33:06;4.30;99.90
15481;DHT22;7842;50.904;6.670;2023-04-03T00:35:32;4.20;99.90
15481;DHT22;7842;50.904;6.670;2023-04-03T00:37:59;4.20;99.90
15481;DHT22;7842;50.904;6.670;2023-04-03T00:40:26;4.20;99.90
15481;DHT22;7842;50.904;6.670;2023-04-03T00:42:57;4.60;99.90
15481;DHT22;7842;50.904;6.670;2023-04-03T00:45:37;3.90;99.90
15481;DHT22;7842;50.904;6.670;2023-04-03T00:48:05;3.90;99.90
15481;DHT22;7842;50.904;6.670;2023-04-03T00:50:33;3.90;99.90
15481;DHT22;7842;50.904;6.670;2023-04-03T00:53:00;5.70;99.90
15481;DHT22;7842;50.904;6.670;2023-04-03T00:55:26;3.80;99.90
15481;DHT22;7842;50.904;6.670;2023-04-03T00:57:52;3.80;99.90
15481;DHT22;7842;50.904;6.670;2023-04-03T01:00:19;3.80;99.90
15481;DHT22;7842;50.904;6.670;2023-04-03T01:02:45;3.80;99.90
15481;DHT22;7842;50.904;6.670;2023-04-03T01:05:12;3.80;99.90
15481;DHT22;7842;50.904;6.670;2023-04-03T01:07:40;3.80;99.90
15481;DHT22;7842;50.904;6.670;2023-04-03T01:10:09;5.70;99.90
15481;DHT22;7842;50.904;6.670;2023-04-03T01:12:40;3.80;99.90
15481;DHT22;7842;50.904;6.670;2023-04-03T01:15:15;3.80;99.90
15481;DHT22;7842;50.904;6.670;2023-04-03T01:17:47;3.70;99.90
15481;DHT22;7842;50.904;6.670;2023-04-03T01:25:28;3.60;99.90
15481;DHT22;7842;50.904;6.670;2023-04-03T01:27:54;3.50;99.90
15481;DHT22;7842;50.904;6.670;2023-04-03T01:30:21;3.60;99.90
15481;DHT22;7842;50.904;6.670;2023-04-03T01:32:48;3.60;99.90
15481;DHT22;7842;50.904;6.670;2023-04-03T01:35:14;3.50;99.90
15481;DHT22;7842;50.904;6.670;2023-04-03T01:37:40;3.40;99.90
15481;DHT22;7842;50.904;6.670;2023-04-03T01:40:06;3.40;99.90
15481;DHT22;7842;50.904;6.670;2023-04-03T01:42:32;3.40;99.90
15481;DHT22;7842;50.904;6.670;2023-04-03T01:44:57;3.40;99.90
15481;DHT22;7842;50.904;6.670;2023-04-03T01:47:23;3.30;99.90
15481;DHT22;7842;50.904;6.670;2023-04-03T01:49:49;3.30;99.90
15481;DHT22;7842;50.904;6.670;2023-04-03T01:52:14;3.30;99.90
15481;DHT22;7842;50.904;6.670;2023-04-03T01:54:40;3.40;99.90
15481;DHT22;7842;50.904;6.670;2023-04-03T01:57:05;3.30;99.90
15481;DHT22;7842;50.904;6.670;2023-04-03T01:59:31;3.40;99.90
15481;DHT22;7842;50.904;6.670;2023-04-03T02:01:57;3.30;99.90
15481;DHT22;7842;50.904;6.670;2023-04-03T02:04:23;3.30;99.90
15481;DHT22;7842;50.904;6.670;2023-04-03T02:06:48;3.20;99.90
15481;DHT22;7842;50.904;6.670;2023-04-03T02:09:14;5.80;99.90
15481;DHT22;7842;50.904;6.670;2023-04-03T02:11:40;3.10;99.90
15481;DHT22;7842;50.904;6.670;2023-04-03T02:14:06;3.20;99.90
15481;DHT22;7842;50.904;6.670;2023-04-03T02:16:31;3.20;99.90
15481;DHT22;7842;50.904;6.670;2023-04-03T02:18:57;3.10;99.90
15481;DHT22;7842;50.904;6.670;2023-04-03T02:21:23;3.10;99.90
15481;DHT22;7842;50.904;6.670;2023-04-03T02:23:48;3.20;99.90
15481;DHT22;7842;50.904;6.670;2023-04-03T02:26:15;3.20;99.90
15481;DHT22;7842;50.904;6.670;2023-04-03T02:28:41;3.00;99.90
15481;DHT22;7842;50.904;6.670;2023-04-03T02:31:08;3.10;99.90
15481;DHT22;7842;50.904;6.670;2023-04-03T02:33:35;3.00;99.90
15481;DHT22;7842;50.904;6.670;2023-04-03T02:36:03;3.10;99.90
15481;DHT22;7842;50.904;6.670;2023-04-03T02:38:29;2.90;99.90
15481;DHT22;7842;50.904;6.670;2023-04-03T02:41:06;3.00;99.90
15481;DHT22;7842;50.904;6.670;2023-04-03T02:43:33;3.50;99.90
15481;DHT22;7842;50.904;6.670;2023-04-03T02:45:59;3.00;99.90
15481;DHT22;7842;50.904;6.670;2023-04-03T02:48:25;3.00;99.90
15481;DHT22;7842;50.904;6.670;2023-04-03T02:50:51;3.00;99.90
15481;DHT22;7842;50.904;6.670;2023-04-03T02:53:18;3.00;99.90
15481;DHT22;7842;50.904;6.670;2023-04-03T02:55:44;2.90;99.90
15481;DHT22;7842;50.904;6.670;2023-04-03T02:58:10;3.00;99.90
15481;DHT22;7842;50.904;6.670;2023-04-03T03:00:36;3.00;99.90
15481;DHT22;7842;50.904;6.670;2023-04-03T03:03:02;2.90;99.90
15481;DHT22;7842;50.904;6.670;2023-04-03T03:05:28;2.90;99.90
15481;DHT22;7842;50.904;6.670;2023-04-03T03:07:54;3.00;99.90
15481;DHT22;7842;50.904;6.670;2023-04-03T03:10:20;3.00;99.90
15481;DHT22;7842;50.904;6.670;2023-04-03T03:12:45;2.90;99.90
15481;DHT22;7842;50.904;6.670;2023-04-03T03:15:11;2.90;99.90
15481;DHT22;7842;50.904;6.670;2023-04-03T03:17:37;2.80;99.90
15481;DHT22;7842;50.904;6.670;2023-04-03T03:20:05;2.90;99.90
15481;DHT22;7842;50.904;6.670;2023-04-03T03:22:31;2.80;99.90
15481;DHT22;7842;50.904;6.670;2023-04-03T03:24:57;2.70;99.90
15481;DHT22;7842;50.904;6.670;2023-04-03T03:27:22;2.80;99.90
15481;DHT22;7842;50.904;6.670;2023-04-03T03:29:49;5.40;99.90
15481;DHT22;7842;50.904;6.670;2023-04-03T03:32:15;2.60;99.90
15481;DHT22;7842;50.904;6.670;2023-04-03T03:34:40;2.60;99.90
15481;DHT22;7842;50.904;6.670;2023-04-03T03:37:06;2.70;99.90
15481;DHT22;7842;50.904;6.670;2023-04-03T03:39:31;5.30;99.90
15481;DHT22;7842;50.904;6.670;2023-04-03T03:41:57;2.60;99.90
15481;DHT22;7842;50.904;6.670;2023-04-03T03:44:23;2.60;99.90
15481;DHT22;7842;50.904;6.670;2023-04-03T03:46:48;2.60;99.90
15481;DHT22;7842;50.904;6.670;2023-04-03T03:49:14;2.60;99.90
15481;DHT22;7842;50.904;6.670;2023-04-03T03:51:39;2.70;99.90
15481;DHT22;7842;50.904;6.670;2023-04-03T03:54:06;2.80;99.90
15481;DHT22;7842;50.904;6.670;2023-04-03T03:56:33;2.70;99.90
15481;DHT22;7842;50.904;6.670;2023-04-03T03:58:58;2.70;99.90
15481;DHT22;7842;50.904;6.670;2023-04-03T04:01:24;2.70;99.90
15481;DHT22;7842;50.904;6.670;2023-04-03T04:03:50;2.80;99.90
15481;DHT22;7842;50.904;6.670;2023-04-03T04:06:16;2.80;99.90
15481;DHT22;7842;50.904;6.670;2023-04-03T04:08:42;2.70;99.90
15481;DHT22;7842;50.904;6.670;2023-04-03T04:11:08;2.60;99.90
15481;DHT22;7842;50.904;6.670;2023-04-03T04:13:34;2.70;99.90
15481;DHT22;7842;50.904;6.670;2023-04-03T04:16:00;2.70;99.90
15481;DHT22;7842;50.904;6.670;2023-04-03T04:18:26;0.60;99.90
15481;DHT22;7842;50.904;6.670;2023-04-03T04:20:51;2.70;99.90
15481;DHT22;7842;50.904;6.670;2023-04-03T04:23:18;4.90;99.90
15481;DHT22;7842;50.904;6.670;2023-04-03T04:25:48;2.50;99.90
15481;DHT22;7842;50.904;6.670;2023-04-03T04:28:15;2.60;99.90
15481;DHT22;7842;50.904;6.670;2023-04-03T04:30:40;2.60;99.90
15481;DHT22;7842;50.904;6.670;2023-04-03T04:33:06;2.60;99.90
15481;DHT22;7842;50.904;6.670;2023-04-03T04:35:32;2.50;99.90
15481;DHT22;7842;50.904;6.670;2023-04-03T04:37:58;2.50;99.90
15481;DHT22;7842;50.904;6.670;2023-04-03T04:40:24;2.40;99.90
15481;DHT22;7842;50.904;6.670;2023-04-03T04:42:49;2.50;99.90
15481;DHT22;7842;50.904;6.670;2023-04-03T04:45:15;2.40;99.90
15481;DHT22;7842;50.904;6.670;2023-04-03T04:47:41;2.50;99.90
15481;DHT22;7842;50.904;6.670;2023-04-03T04:50:07;2.40;99.90
15481;DHT22;7842;50.904;6.670;2023-04-03T04:52:33;2.40;99.90
15481;DHT22;7842;50.904;6.670;2023-04-03T04:54:59;2.40;99.90
15481;DHT22;7842;50.904;6.670;2023-04-03T04:57:25;2.40;99.90
15481;DHT22;7842;50.904;6.670;2023-04-03T04:59:50;2.40;99.90
15481;DHT22;7842;50.904;6.670;2023-04-03T05:02:16;2.40;99.90
15481;DHT22;7842;50.904;6.670;2023-04-03T05:04:42;2.30;99.90
15481;DHT22;7842;50.904;6.670;2023-04-03T05:07:07;2.30;99.90
15481;DHT22;7842;50.904;6.670;2023-04-03T05:09:33;2.30;99.90
15481;DHT22;7842;50.904;6.670;2023-04-03T05:11:59;2.30;99.90
15481;DHT22;7842;50.904;6.670;2023-04-03T05:14:25;2.30;99.90
15481;DHT22;7842;50.904;6.670;2023-04-03T05:16:50;2.30;99.90
15481;DHT22;7842;50.904;6.670;2023-04-03T05:19:19;2.30;99.90
15481;DHT22;7842;50.904;6.670;2023-04-03T05:21:45;2.30;99.90
15481;DHT22;7842;50.904;6.670;2023-04-03T05:24:11;2.30;99.90
15481;DHT22;7842;50.904;6.670;2023-04-03T05:26:37;3.20;99.90
15481;DHT22;7842;50.904;6.670;2023-04-03T05:29:03;2.30;99.90
15481;DHT22;7842;50.904;6.670;2023-04-03T05:31:28;3.80;99.90
15481;DHT22;7842;50.904;6.670;2023-04-03T05:33:55;3.80;99.90
15481;DHT22;7842;50.904;6.670;2023-04-03T05:38:56;5.20;99.90
15481;DHT22;7842;50.904;6.670;2023-04-03T05:41:22;6.30;99.90
15481;DHT22;7842;50.904;6.670;2023-04-03T05:43:48;5.30;99.90
15481;DHT22;7842;50.904;6.670;2023-04-03T05:46:18;5.70;99.90
15481;DHT22;7842;50.904;6.670;2023-04-03T05:48:44;6.30;99.90
15481;DHT22;7842;50.904;6.670;2023-04-03T05:51:19;6.60;99.90
15481;DHT22;7842;50.904;6.670;2023-04-03T05:53:45;7.40;99.90
15481;DHT22;7842;50.904;6.670;2023-04-03T05:56:12;7.00;99.90
15481;DHT22;7842;50.904;6.670;2023-04-03T05:58:38;6.90;99.90
15481;DHT22;7842;50.904;6.670;2023-04-03T06:01:04;7.40;99.90
15481;DHT22;7842;50.904;6.670;2023-04-03T06:03:30;7.70;99.90
15481;DHT22;7842;50.904;6.670;2023-04-03T06:05:59;7.80;99.90
15481;DHT22;7842;50.904;6.670;2023-04-03T06:08:24;8.10;99.90
15481;DHT22;7842;50.904;6.670;2023-04-03T06:10:50;8.20;99.90
15481;DHT22;7842;50.904;6.670;2023-04-03T06:13:16;10.30;99.90
15481;DHT22;7842;50.904;6.670;2023-04-03T06:15:42;9.00;99.90
15481;DHT22;7842;50.904;6.670;2023-04-03T06:18:07;8.50;99.90
15481;DHT22;7842;50.904;6.670;2023-04-03T06:20:33;8.70;99.90
15481;DHT22;7842;50.904;6.670;2023-04-03T06:22:59;8.60;99.90
15481;DHT22;7842;50.904;6.670;2023-04-03T06:25:25;8.70;99.90
15481;DHT22;7842;50.904;6.670;2023-04-03T06:27:50;8.20;99.90
15481;DHT22;7842;50.904;6.670;2023-04-03T06:30:16;8.40;99.90
15481;DHT22;7842;50.904;6.670;2023-04-03T06:32:42;8.30;99.90
15481;DHT22;7842;50.904;6.670;2023-04-03T06:35:08;7.70;99.90
15481;DHT22;7842;50.904;6.670;2023-04-03T06:37:34;8.00;99.90
15481;DHT22;7842;50.904;6.670;2023-04-03T06:40:00;7.40;99.90
15481;DHT22;7842;50.904;6.670;2023-04-03T06:42:26;7.30;99.90
15481;DHT22;7842;50.904;6.670;2023-04-03T06:44:51;7.90;99.90
15481;DHT22;7842;50.904;6.670;2023-04-03T06:47:17;7.40;99.90
15481;DHT22;7842;50.904;6.670;2023-04-03T06:49:43;6.70;99.90
15481;DHT22;7842;50.904;6.670;2023-04-03T06:52:09;6.50;99.90
15481;DHT22;7842;50.904;6.670;2023-04-03T06:54:37;6.40;99.90
15481;DHT22;7842;50.904;6.670;2023-04-03T06:57:03;6.20;99.90
15481;DHT22;7842;50.904;6.670;2023-04-03T06:59:28;6.20;99.90
15481;DHT22;7842;50.904;6.670;2023-04-03T07:04:20;5.60;99.90
15481;DHT22;7842;50.904;6.670;2023-04-03T07:06:46;5.30;99.90
15481;DHT22;7842;50.904;6.670;2023-04-03T07:09:13;5.40;99.90
15481;DHT22;7842;50.904;6.670;2023-04-03T07:11:39;5.60;99.90
15481;DHT22;7842;50.904;6.670;2023-04-03T07:14:05;5.50;99.90
15481;DHT22;7842;50.904;6.670;2023-04-03T07:16:33;5.60;99.90
15481;DHT22;7842;50.904;6.670;2023-04-03T07:18:59;5.50;99.90
15481;DHT22;7842;50.904;6.670;2023-04-03T07:21:25;5.80;99.90
15481;DHT22;7842;50.904;6.670;2023-04-03T07:23:51;6.00;99.90
15481;DHT22;7842;50.904;6.670;2023-04-03T07:26:17;6.00;99.90
15481;DHT22;7842;50.904;6.670;2023-04-03T07:28:43;6.20;99.90
15481;DHT22;7842;50.904;6.670;2023-04-03T07:31:12;6.00;99.90
15481;DHT22;7842;50.904;6.670;2023-04-03T07:38:41;6.30;99.90
15481;DHT22;7842;50.904;6.670;2023-04-03T07:41:06;6.40;99.90
15481;DHT22;7842;50.904;6.670;2023-04-03T07:43:36;6.40;99.90
15481;DHT22;7842;50.904;6.670;2023-04-03T07:48:30;6.50;99.90
15481;DHT22;7842;50.904;6.670;2023-04-03T07:50:59;6.50;99.90
15481;DHT22;7842;50.904;6.670;2023-04-03T07:53:25;6.40;99.90
15481;DHT22;7842;50.904;6.670;2023-04-03T07:58:21;6.40;99.90
15481;DHT22;7842;50.904;6.670;2023-04-03T08:00:47;6.50;99.90
15481;DHT22;7842;50.904;6.670;2023-04-03T08:08:12;6.30;99.90
15481;DHT22;7842;50.904;6.670;2023-04-03T08:10:39;6.30;99.90
15481;DHT22;7842;50.904;6.670;2023-04-03T08:13:05;6.30;99.90
15481;DHT22;7842;50.904;6.670;2023-04-03T08:15:31;6.50;99.90
15481;DHT22;7842;50.904;6.670;2023-04-03T08:17:57;6.70;99.90
15481;DHT22;7842;50.904;6.670;2023-04-03T08:20:23;6.80;99.90
15481;DHT22;7842;50.904;6.670;2023-04-03T08:22:49;7.00;99.90
15481;DHT22;7842;50.904;6.670;2023-04-03T08:27:40;6.90;99.90
15481;DHT22;7842;50.904;6.670;2023-04-03T08:30:07;6.90;99.90
15481;DHT22;7842;50.904;6.670;2023-04-03T08:32:34;6.90;99.90
15481;DHT22;7842;50.904;6.670;2023-04-03T08:35:01;7.00;99.90
15481;DHT22;7842;50.904;6.670;2023-04-03T08:39:53;7.30;99.90
15481;DHT22;7842;50.904;6.670;2023-04-03T08:45:55;7.40;99.90
15481;DHT22;7842;50.904;6.670;2023-04-03T08:48:27;7.40;99.90
15481;DHT22;7842;50.904;6.670;2023-04-03T08:50:58;7.30;99.90
15481;DHT22;7842;50.904;6.670;2023-04-03T08:53:30;7.40;99.90
15481;DHT22;7842;50.904;6.670;2023-04-03T08:55:58;7.30;99.90
15481;DHT22;7842;50.904;6.670;2023-04-03T08:58:28;7.30;99.90
15481;DHT22;7842;50.904;6.670;2023-04-03T09:01:02;7.40;99.90
15481;DHT22;7842;50.904;6.670;2023-04-03T09:03:35;7.60;99.90
15481;DHT22;7842;50.904;6.670;2023-04-03T09:14:11;7.90;99.90
15481;DHT22;7842;50.904;6.670;2023-04-03T09:19:41;8.00;99.90
15481;DHT22;7842;50.904;6.670;2023-04-03T09:27:14;7.80;99.90
15481;DHT22;7842;50.904;6.670;2023-04-03T09:32:30;7.70;99.90
15481;DHT22;7842;50.904;6.670;2023-04-03T09:35:04;7.50;99.90
15481;DHT22;7842;50.904;6.670;2023-04-03T09:50:55;8.30;99.90
15481;DHT22;7842;50.904;6.670;2023-04-03T09:53:42;8.40;99.90
15481;DHT22;7842;50.904;6.670;2023-04-03T11:40:08;9.00;99.90
15481;DHT22;7842;50.904;6.670;2023-04-03T11:42:48;9.00;99.90
15481;DHT22;7842;50.904;6.670;2023-04-03T11:51:00;9.10;99.90
15481;DHT22;7842;50.904;6.670;2023-04-03T11:53:39;9.00;99.90
15481;DHT22;7842;50.904;6.670;2023-04-03T11:56:28;9.10;99.90
15481;DHT22;7842;50.904;6.670;2023-04-03T12:01:48;9.20;99.90
15481;DHT22;7842;50.904;6.670;2023-04-03T12:04:15;9.20;99.90
15481;DHT22;7842;50.904;6.670;2023-04-03T12:06:50;9.40;99.90
15481;DHT22;7842;50.904;6.670;2023-04-03T12:16:55;9.40;99.90
15481;DHT22;7842;50.904;6.670;2023-04-03T12:19:36;9.50;99.90
15481;DHT22;7842;50.904;6.670;2023-04-03T12:27:24;9.60;99.90
15481;DHT22;7842;50.904;6.670;2023-04-03T12:46:09;9.90;99.90
15481;DHT22;7842;50.904;6.670;2023-04-03T12:56:31;9.90;99.90
15481;DHT22;7842;50.904;6.670;2023-04-03T12:59:32;9.90;99.90
15481;DHT22;7842;50.904;6.670;2023-04-03T13:04:28;9.80;99.90
15481;DHT22;7842;50.904;6.670;2023-04-03T13:24:29;10.30;99.90
15481;DHT22;7842;50.904;6.670;2023-04-03T13:41:50;10.30;99.90
15481;DHT22;7842;50.904;6.670;2023-04-03T13:46:52;10.20;99.90
15481;DHT22;7842;50.904;6.670;2023-04-03T14:01:53;10.60;97.70
15481;DHT22;7842;50.904;6.670;2023-04-03T14:04:25;11.30;98.30
15481;DHT22;7842;50.904;6.670;2023-04-03T14:06:53;10.30;96.60
15481;DHT22;7842;50.904;6.670;2023-04-03T14:09:20;10.10;96.90
15481;DHT22;7842;50.904;6.670;2023-04-03T14:11:48;10.90;97.00
15481;DHT22;7842;50.904;6.670;2023-04-03T14:14:18;10.30;97.80
15481;DHT22;7842;50.904;6.670;2023-04-03T14:16:50;12.30;98.20
15481;DHT22;7842;50.904;6.670;2023-04-03T14:19:34;12.10;97.00
15481;DHT22;7842;50.904;6.670;2023-04-03T14:22:28;10.50;96.70
15481;DHT22;7842;50.904;6.670;2023-04-03T14:24:53;10.40;95.80
15481;DHT22;7842;50.904;6.670;2023-04-03T14:27:27;11.10;98.60
15481;DHT22;7842;50.904;6.670;2023-04-03T14:29:55;10.50;97.60
15481;DHT22;7842;50.904;6.670;2023-04-03T14:32:23;10.50;96.80
15481;DHT22;7842;50.904;6.670;2023-04-03T14:34:50;10.50;96.70
15481;DHT22;7842;50.904;6.670;2023-04-03T14:37:19;10.40;98.50
15481;DHT22;7842;50.904;6.670;2023-04-03T14:39:46;10.40;98.90
15481;DHT22;7842;50.904;6.670;2023-04-03T14:42:14;10.40;97.60
15481;DHT22;7842;50.904;6.670;2023-04-03T14:44:41;9.80;97.60
15481;DHT22;7842;50.904;6.670;2023-04-03T14:47:16;10.40;98.30
15481;DHT22;7842;50.904;6.670;2023-04-03T14:49:42;13.00;98.70
15481;DHT22;7842;50.904;6.670;2023-04-03T14:52:32;13.10;98.50
15481;DHT22;7842;50.904;6.670;2023-04-03T14:54:59;10.50;98.80
15481;DHT22;7842;50.904;6.670;2023-04-03T14:57:28;11.70;99.90
15481;DHT22;7842;50.904;6.670;2023-04-03T14:59:54;10.60;99.90
15481;DHT22;7842;50.904;6.670;2023-04-03T15:02:37;12.00;99.90
15481;DHT22;7842;50.904;6.670;2023-04-03T15:05:08;10.60;99.70
15481;DHT22;7842;50.904;6.670;2023-04-03T15:07:43;10.80;99.70
15481;DHT22;7842;50.904;6.670;2023-04-03T15:12:45;10.80;99.60
15481;DHT22;7842;50.904;6.670;2023-04-03T15:15:12;10.80;98.60
15481;DHT22;7842;50.904;6.670;2023-04-03T15:17:38;10.70;99.60
15481;DHT22;7842;50.904;6.670;2023-04-03T15:20:12;10.50;99.90
15481;DHT22;7842;50.904;6.670;2023-04-03T15:22:38;10.80;99.90
15481;DHT22;7842;50.904;6.670;2023-04-03T15:25:04;11.90;99.90
15481;DHT22;7842;50.904;6.670;2023-04-03T15:27:30;10.60;99.90
15481;DHT22;7842;50.904;6.670;2023-04-03T15:29:56;10.30;99.90
15481;DHT22;7842;50.904;6.670;2023-04-03T15:32:21;11.50;99.90
15481;DHT22;7842;50.904;6.670;2023-04-03T15:34:47;10.40;99.90
15481;DHT22;7842;50.904;6.670;2023-04-03T15:44:34;10.50;99.90
15481;DHT22;7842;50.904;6.670;2023-04-03T15:47:00;10.40;99.90
15481;DHT22;7842;50.904;6.670;2023-04-03T15:49:26;10.40;99.90
15481;DHT22;7842;50.904;6.670;2023-04-03T15:54:18;10.30;99.90
15481;DHT22;7842;50.904;6.670;2023-04-03T15:56:44;10.30;99.90
15481;DHT22;7842;50.904;6.670;2023-04-03T15:59:10;10.20;99.90
15481;DHT22;7842;50.904;6.670;2023-04-03T16:01:37;10.30;99.90
15481;DHT22;7842;50.904;6.670;2023-04-03T16:04:05;10.30;99.90
15481;DHT22;7842;50.904;6.670;2023-04-03T16:06:30;12.10;99.90
15481;DHT22;7842;50.904;6.670;2023-04-03T16:08:57;12.60;99.90
15481;DHT22;7842;50.904;6.670;2023-04-03T16:11:24;10.00;99.90
15481;DHT22;7842;50.904;6.670;2023-04-03T16:13:51;12.00;99.90
15481;DHT22;7842;50.904;6.670;2023-04-03T16:18:43;10.30;99.90
15481;DHT22;7842;50.904;6.670;2023-04-03T16:21:09;10.20;99.90
15481;DHT22;7842;50.904;6.670;2023-04-03T16:23:35;10.20;99.90
15481;DHT22;7842;50.904;6.670;2023-04-03T16:26:03;9.90;99.90
15481;DHT22;7842;50.904;6.670;2023-04-03T16:28:28;10.10;99.90
15481;DHT22;7842;50.904;6.670;2023-04-03T16:33:20;10.10;99.90
15481;DHT22;7842;50.904;6.670;2023-04-03T16:35:48;10.00;99.90
15481;DHT22;7842;50.904;6.670;2023-04-03T16:38:14;10.00;99.90
15481;DHT22;7842;50.904;6.670;2023-04-03T16:40:40;10.00;99.90
15481;DHT22;7842;50.904;6.670;2023-04-03T16:45:32;10.00;99.90
15481;DHT22;7842;50.904;6.670;2023-04-03T16:47:58;10.00;99.90
15481;DHT22;7842;50.904;6.670;2023-04-03T16:50:23;9.90;99.90
15481;DHT22;7842;50.904;6.670;2023-04-03T16:55:15;9.90;99.90
15481;DHT22;7842;50.904;6.670;2023-04-03T16:57:41;9.90;99.90
15481;DHT22;7842;50.904;6.670;2023-04-03T17:00:07;9.80;99.90
15481;DHT22;7842;50.904;6.670;2023-04-03T17:02:33;9.70;99.90
15481;DHT22;7842;50.904;6.670;2023-04-03T17:04:59;9.60;99.90
15481;DHT22;7842;50.904;6.670;2023-04-03T17:09:51;9.50;99.90
15481;DHT22;7842;50.904;6.670;2023-04-03T17:12:19;9.30;99.90
15481;DHT22;7842;50.904;6.670;2023-04-03T17:14:48;9.30;99.90
15481;DHT22;7842;50.904;6.670;2023-04-03T17:17:14;9.50;99.90
15481;DHT22;7842;50.904;6.670;2023-04-03T17:19:41;11.20;99.90
15481;DHT22;7842;50.904;6.670;2023-04-03T17:22:08;9.20;99.90
15481;DHT22;7842;50.904;6.670;2023-04-03T17:24:35;9.10;99.90
15481;DHT22;7842;50.904;6.670;2023-04-03T17:27:01;9.00;99.90
15481;DHT22;7842;50.904;6.670;2023-04-03T17:29:27;8.90;99.90
15481;DHT22;7842;50.904;6.670;2023-04-03T17:31:53;8.80;99.90
15481;DHT22;7842;50.904;6.670;2023-04-03T17:34:19;11.20;99.90
15481;DHT22;7842;50.904;6.670;2023-04-03T17:36:44;9.50;99.90
15481;DHT22;7842;50.904;6.670;2023-04-03T17:39:10;8.80;99.90
15481;DHT22;7842;50.904;6.670;2023-04-03T17:44:02;8.70;99.90
15481;DHT22;7842;50.904;6.670;2023-04-03T17:46:28;8.70;99.90
15481;DHT22;7842;50.904;6.670;2023-04-03T17:48:55;8.80;99.90
15481;DHT22;7842;50.904;6.670;2023-04-03T17:51:24;8.80;99.90
15481;DHT22;7842;50.904;6.670;2023-04-03T17:56:18;8.60;99.90
15481;DHT22;7842;50.904;6.670;2023-04-03T17:58:44;8.50;99.90
15481;DHT22;7842;50.904;6.670;2023-04-03T18:03:41;8.20;99.90
15481;DHT22;7842;50.904;6.670;2023-04-03T18:06:09;8.20;99.90
15481;DHT22;7842;50.904;6.670;2023-04-03T18:08:38;8.20;99.90
15481;DHT22;7842;50.904;6.670;2023-04-03T18:13:33;8.10;99.90
15481;DHT22;7842;50.904;6.670;2023-04-03T18:18:28;8.00;99.90
15481;DHT22;7842;50.904;6.670;2023-04-03T18:20:56;7.90;99.90
15481;DHT22;7842;50.904;6.670;2023-04-03T18:23:23;7.80;99.90
15481;DHT22;7842;50.904;6.670;2023-04-03T18:30:44;7.60;99.90
15481;DHT22;7842;50.904;6.670;2023-04-03T18:38:05;7.70;99.90
15481;DHT22;7842;50.904;6.670;2023-04-03T18:42:59;7.50;99.90
15481;DHT22;7842;50.904;6.670;2023-04-03T18:45:26;7.40;99.90
15481;DHT22;7842;50.904;6.670;2023-04-03T18:50:21;7.20;99.90
15481;DHT22;7842;50.904;6.670;2023-04-03T18:55:16;7.20;99.90
15481;DHT22;7842;50.904;6.670;2023-04-03T19:00:11;7.10;99.90
15481;DHT22;7842;50.904;6.670;2023-04-03T19:05:06;7.00;99.90
15481;DHT22;7842;50.904;6.670;2023-04-03T19:07:33;7.00;99.90
15481;DHT22;7842;50.904;6.670;2023-04-03T19:27:02;6.70;99.90
15481;DHT22;7842;50.904;6.670;2023-04-03T19:39:13;6.40;99.90
15481;DHT22;7842;50.904;6.670;2023-04-03T19:41:40;6.50;99.90
15481;DHT22;7842;50.904;6.670;2023-04-03T19:48:59;6.20;99.90
15481;DHT22;7842;50.904;6.670;2023-04-03T19:53:52;6.10;99.90
15481;DHT22;7842;50.904;6.670;2023-04-03T19:56:18;6.00;99.90
15481;DHT22;7842;50.904;6.670;2023-04-03T19:58:45;6.00;99.90
15481;DHT22;7842;50.904;6.670;2023-04-03T20:01:27;6.00;99.90
15481;DHT22;7842;50.904;6.670;2023-04-03T20:03:55;6.00;99.90
15481;DHT22;7842;50.904;6.670;2023-04-03T20:06:21;5.90;99.90
15481;DHT22;7842;50.904;6.670;2023-04-03T20:11:15;5.90;99.90
15481;DHT22;7842;50.904;6.670;2023-04-03T20:18:36;5.80;99.90
15481;DHT22;7842;50.904;6.670;2023-04-03T20:21:06;5.80;99.90
15481;DHT22;7842;50.904;6.670;2023-04-03T20:28:28;5.70;99.90
15481;DHT22;7842;50.904;6.670;2023-04-03T20:30:53;5.60;99.90
15481;DHT22;7842;50.904;6.670;2023-04-03T20:43:24;5.70;99.90
15481;DHT22;7842;50.904;6.670;2023-04-03T20:45:50;5.60;99.90
15481;DHT22;7842;50.904;6.670;2023-04-03T20:58:02;5.50;99.90
15481;DHT22;7842;50.904;6.670;2023-04-03T21:00:29;5.50;99.90
15481;DHT22;7842;50.904;6.670;2023-04-03T21:05:26;5.40;99.90
15481;DHT22;7842;50.904;6.670;2023-04-03T21:21:19;5.40;99.90
15481;DHT22;7842;50.904;6.670;2023-04-03T21:41:02;5.30;99.90
15481;DHT22;7842;50.904;6.670;2023-04-03T21:50:48;5.20;99.90
15481;DHT22;7842;50.904;6.670;2023-04-03T23:43:11;4.10;99.90
15481;DHT22;7842;50.904;6.670;2023-04-03T23:48:03;4.00;99.90
15481;DHT22;7842;50.904;6.670;2023-04-03T23:57:48;3.90;99.90
